Time;durP1;ratioP1;P1;durP2;ratioP2;P2;SDS_P1;SDS_P2;PMS_P1;PMS_P2;Temp;Humidity;BMP_temperature;BMP_pressure;BME280_temperature;BME280_humidity;BME280_pressure;Samples;Min_cycle;Max_cycle;Signal;HPM_P1;HPM_P2
2022/10/18 00:00:22;;;;;;;9.15;4.30;;;;;;;17.72;85.18;101391.00;2057392;28;20039;-74
2022/10/18 00:01:30;;;;;;;4.70;3.55;;;;;;;17.72;85.36;101390.19;2065513;28;20053;-74
2022/10/18 00:02:38;;;;;;;6.07;3.65;;;;;;;17.68;85.48;101403.56;2072360;28;20062;-74
2022/10/18 00:03:43;;;;;;;5.53;3.40;;;;;;;17.66;85.53;101402.28;2072542;28;20069;-74
2022/10/18 00:04:49;;;;;;;8.38;3.70;;;;;;;17.65;85.59;101400.66;2072207;28;20053;-74
2022/10/18 00:05:52;;;;;;;4.95;3.05;;;;;;;17.64;85.79;101404.50;2073469;28;20049;-74
2022/10/18 00:06:58;;;;;;;7.90;3.30;;;;;;;17.64;86.03;101410.75;2071281;28;20041;-74
2022/10/18 00:08:00;;;;;;;5.20;3.42;;;;;;;17.61;86.09;101398.56;2081253;28;20390;-74
2022/10/18 00:09:05;;;;;;;4.15;3.10;;;;;;;17.60;86.09;101396.94;2072471;28;20049;-74
2022/10/18 00:10:12;;;;;;;4.18;3.00;;;;;;;17.60;86.32;101394.22;2065305;28;20045;-74
2022/10/18 00:11:16;;;;;;;;;;;;;;;17.56;86.30;101401.41;2067526;28;20057;-74
2022/10/18 00:12:18;;;;;;;4.72;3.10;;;;;;;17.56;86.26;101397.88;2064741;28;19914;-74
2022/10/18 00:13:23;;;;;;;4.35;2.70;;;;;;;17.55;86.45;101401.69;2066107;28;20050;-74
2022/10/18 00:14:29;;;;;;;6.43;2.80;;;;;;;17.54;86.60;101400.09;2073978;28;20053;-74
2022/10/18 00:15:32;;;;;;;3.95;2.78;;;;;;;17.53;86.37;101393.84;2082043;28;20416;-74
2022/10/18 00:16:35;;;;;;;6.60;2.80;;;;;;;17.51;86.36;101397.97;2089397;28;20060;-74
2022/10/18 00:17:38;;;;;;;5.13;2.80;;;;;;;17.50;86.54;101402.63;2089824;28;20033;-71
2022/10/18 00:18:46;;;;;;;3.95;2.47;;;;;;;17.51;86.38;101400.69;2082369;28;20033;-75
2022/10/18 00:19:52;;;;;;;4.78;2.30;;;;;;;17.51;86.44;101406.13;2081550;28;20049;-75
2022/10/18 00:21:05;;;;;;;5.18;2.80;;;;;;;17.47;86.52;101400.50;2082213;28;20382;-75
2022/10/18 00:22:08;;;;;;;3.08;2.30;;;;;;;17.42;86.38;101399.81;2079131;28;20064;-74
2022/10/18 00:23:13;;;;;;;3.88;2.05;;;;;;;17.37;86.57;101390.66;2050141;28;20055;-74
2022/10/18 00:24:17;;;;;;;2.70;2.20;;;;;;;17.36;86.63;101388.22;2058501;28;20038;-75
2022/10/18 00:25:19;;;;;;;3.65;2.10;;;;;;;17.33;86.83;101383.38;2057546;28;20046;-74
2022/10/18 00:26:29;;;;;;;3.00;2.13;;;;;;;17.28;86.68;101384.31;2050126;28;20043;-74
2022/10/18 00:27:35;;;;;;;3.85;1.90;;;;;;;17.24;86.80;101396.88;2065151;28;20530;-75
2022/10/18 00:28:41;;;;;;;2.60;2.08;;;;;;;17.22;86.95;101392.88;2050404;28;20039;-74
2022/10/18 00:29:46;;;;;;;3.72;1.80;;;;;;;17.21;87.07;101396.69;2050991;28;20047;-74
2022/10/18 00:30:48;;;;;;;3.67;2.03;;;;;;;17.20;86.88;101406.75;2058124;28;20046;-74
2022/10/18 00:31:50;;;;;;;3.53;1.50;;;;;;;17.21;86.86;101411.06;2057722;28;20042;-74
2022/10/18 00:32:57;;;;;;;3.58;1.70;;;;;;;17.22;87.07;101409.97;2065623;28;20037;-74
2022/10/18 00:34:12;;;;;;;2.47;1.92;;;;;;;17.24;86.96;101406.94;2058447;28;20062;-74
2022/10/18 00:35:17;;;;;;;2.38;1.67;;;;;;;17.28;86.91;101402.53;2059587;28;20046;-74
2022/10/18 00:36:25;;;;;;;1.73;1.63;;;;;;;17.29;86.80;101409.56;2058397;28;20423;-74
2022/10/18 00:37:28;;;;;;;3.78;1.83;;;;;;;17.31;86.74;101408.16;2059398;28;20042;-74
2022/10/18 00:38:31;;;;;;;3.72;1.80;;;;;;;17.27;86.62;101411.78;2065475;28;20515;-73
2022/10/18 00:39:33;;;;;;;3.13;1.60;;;;;;;17.26;86.61;101415.63;2073806;28;20038;-73
2022/10/18 00:40:36;;;;;;;2.25;1.77;;;;;;;17.25;86.63;101403.94;2056979;28;20039;-73
2022/10/18 00:41:38;;;;;;;2.63;1.83;;;;;;;17.25;86.50;101409.38;2048911;28;20039;-73
2022/10/18 00:42:44;;;;;;;4.55;1.95;;;;;;;17.25;86.40;101414.81;2064970;28;20514;-73
2022/10/18 00:43:54;;;;;;;2.42;1.85;;;;;;;17.26;86.51;101404.75;2072748;28;20034;-73
2022/10/18 00:45:04;;;;;;;2.58;1.60;;;;;;;17.26;86.37;101410.19;2064216;28;20046;-73
2022/10/18 00:46:10;;;;;;;3.45;1.77;;;;;;;17.23;86.30;101410.78;2058259;28;20035;-73
2022/10/18 00:47:16;;;;;;;2.75;1.75;;;;;;;17.20;86.11;101411.38;2056606;28;20041;-73
2022/10/18 00:48:19;;;;;;;3.70;1.63;;;;;;;17.18;86.19;101408.16;2057065;28;20073;-73
2022/10/18 00:49:36;;;;;;;3.08;1.70;;;;;;;17.15;86.13;101409.59;2048942;28;20665;-73
2022/10/18 00:50:42;;;;;;;1.48;1.30;;;;;;;17.13;86.20;101414.50;2052777;28;20070;-73
2022/10/18 00:52:29;;;;;;;3.03;1.30;;;;;;;17.09;86.14;101402.66;2064335;28;20049;-74
2022/10/18 00:53:35;;;;;;;1.40;1.20;;;;;;;17.07;86.13;101402.13;2057859;28;20046;-74
2022/10/18 00:54:40;;;;;;;1.73;1.33;;;;;;;17.08;86.13;101403.72;2073031;28;20065;-72
2022/10/18 00:55:46;;;;;;;2.42;1.40;;;;;;;17.06;86.19;101395.91;2071268;28;20049;-72
2022/10/18 00:56:50;;;;;;;2.40;1.30;;;;;;;17.03;86.06;101401.13;2056841;28;20054;-72
2022/10/18 00:57:52;;;;;;;3.50;1.67;;;;;;;17.03;86.20;101399.22;2064438;28;20066;-72
2022/10/18 00:59:02;;;;;;;1.52;1.35;;;;;;;17.01;86.27;101398.69;2065159;28;20493;-72
2022/10/18 01:00:10;;;;;;;6.95;1.88;;;;;;;17.03;86.19;101398.41;2065127;28;20034;-72
2022/10/18 01:01:15;;;;;;;7.78;2.53;;;;;;;17.00;86.25;101413.41;2065140;28;20646;-72
2022/10/18 01:02:21;;;;;;;1.58;1.20;;;;;;;17.01;86.08;101409.56;2064887;28;20053;-72
2022/10/18 01:03:27;;;;;;;4.38;1.30;;;;;;;16.99;86.12;101408.25;2065167;28;20026;-72
2022/10/18 01:04:29;;;;;;;2.15;1.35;;;;;;;17.00;86.06;101409.88;2064267;28;20045;-72
2022/10/18 01:05:31;;;;;;;4.32;1.33;;;;;;;16.96;86.07;101411.56;2072534;28;20045;-72
2022/10/18 01:06:47;;;;;;;2.30;1.60;;;;;;;16.97;86.10;101407.75;2063832;28;20442;-73
2022/10/18 01:08:06;;;;;;;1.95;1.48;;;;;;;16.94;86.00;101409.16;2062918;28;20050;-72
2022/10/18 01:09:08;;;;;;;1.83;1.30;;;;;;;16.92;86.05;101400.50;2064711;28;20522;-72
2022/10/18 01:10:25;;;;;;;6.53;1.50;;;;;;;16.90;85.97;101398.09;2056933;28;20045;-72
2022/10/18 01:11:58;;;;;;;2.35;1.30;;;;;;;16.90;86.21;101392.66;2074900;28;20058;-72
2022/10/18 01:13:00;;;;;;;1.67;1.40;;;;;;;16.87;86.10;101393.28;2050922;28;20143;-72
2022/10/18 01:14:15;;;;;;;4.50;1.30;;;;;;;16.85;86.17;101395.47;2073389;28;20041;-72
2022/10/18 01:15:34;;;;;;;1.80;1.20;;;;;;;16.85;86.41;101395.47;2064432;28;20038;-72
2022/10/18 01:16:47;;;;;;;2.22;1.52;;;;;;;16.82;86.48;101401.50;2058393;28;20057;-72
2022/10/18 01:18:05;;;;;;;3.75;1.50;;;;;;;16.78;86.32;101392.34;2065782;28;20038;-72
2022/10/18 01:19:34;;;;;;;2.00;1.35;;;;;;;16.77;86.47;101398.91;2071941;28;20046;-72
2022/10/18 01:21:16;;;;;;;2.15;1.30;;;;;;;16.79;86.67;101395.88;2060091;28;20046;-72
2022/10/18 01:22:36;;;;;;;2.22;1.10;;;;;;;16.76;86.78;101401.91;2068495;28;20517;-72
2022/10/18 01:23:53;;;;;;;3.55;1.45;;;;;;;16.78;86.74;101405.13;2065247;28;20061;-72
2022/10/18 01:25:06;;;;;;;2.53;1.30;;;;;;;16.79;86.63;101410.25;2065237;28;20034;-73
2022/10/18 01:26:19;;;;;;;3.15;1.42;;;;;;;16.78;86.65;101416.00;2058735;28;20036;-72
2022/10/18 01:27:42;;;;;;;4.38;1.40;;;;;;;16.75;86.65;101414.66;2065521;28;20042;-72
2022/10/18 01:29:15;;;;;;;2.60;1.20;;;;;;;16.78;86.88;101416.78;2070210;28;20417;-72
2022/10/18 01:30:40;;;;;;;2.45;1.52;;;;;;;16.78;87.01;101418.72;2068552;28;20053;-72
2022/10/18 01:32:20;;;;;;;3.17;1.55;;;;;;;16.75;86.99;101425.53;2065657;28;20037;-73
2022/10/18 01:33:25;;;;;;;2.38;1.42;;;;;;;16.72;87.13;101426.09;2064682;28;20514;-76
2022/10/18 01:34:34;;;;;;;4.35;1.60;;;;;;;16.67;87.16;101424.25;2065216;28;20034;-76
2022/10/18 01:35:46;;;;;;;2.05;1.63;;;;;;;16.66;87.33;101430.81;2064901;28;20426;-76
2022/10/18 01:36:53;;;;;;;2.50;1.25;;;;;;;16.66;87.69;101432.72;2074316;28;20050;-76
2022/10/18 01:37:58;;;;;;;2.35;1.45;;;;;;;16.65;87.85;101429.22;2064872;28;20053;-77
2022/10/18 01:39:08;;;;;;;1.90;1.40;;;;;;;16.65;87.86;101433.84;2057103;28;20450;-76
2022/10/18 01:40:13;;;;;;;3.05;1.50;;;;;;;16.69;87.83;101434.84;2059372;28;20035;-76
2022/10/18 01:41:23;;;;;;;2.83;1.60;;;;;;;16.70;88.02;101433.72;2065154;28;20034;-76
2022/10/18 01:42:30;;;;;;;2.55;1.30;;;;;;;16.72;88.05;101428.00;2058542;28;20034;-76
2022/10/18 01:43:34;;;;;;;2.30;1.60;;;;;;;16.73;87.85;101419.56;2064520;28;20054;-76
2022/10/18 01:44:43;;;;;;;1.80;1.30;;;;;;;16.74;87.84;101421.19;2065119;28;20053;-75
2022/10/18 01:45:50;;;;;;;2.35;1.40;;;;;;;16.74;87.77;101415.75;2058337;28;20093;-75
2022/10/18 01:47:03;;;;;;;1.40;1.25;;;;;;;16.76;87.90;101413.56;2064881;28;20050;-74
2022/10/18 01:48:11;;;;;;;1.65;1.10;;;;;;;16.74;87.78;101418.47;2065620;28;20096;-73
2022/10/18 01:49:13;;;;;;;2.28;1.08;;;;;;;16.70;87.63;101422.88;2073211;28;20056;-73
2022/10/18 01:50:28;;;;;;;4.00;1.60;;;;;;;16.68;87.72;101411.53;2065102;28;20038;-75
2022/10/18 01:51:32;;;;;;;1.60;1.17;;;;;;;16.67;87.70;101409.88;2058853;28;20039;-74
2022/10/18 01:52:35;;;;;;;2.25;1.30;;;;;;;16.67;87.70;101409.88;2056962;28;20051;-75
2022/10/18 01:53:42;;;;;;;3.92;1.20;;;;;;;16.67;87.59;101409.88;2063975;28;20050;-75
2022/10/18 01:54:51;;;;;;;3.53;1.30;;;;;;;16.63;87.54;101414.31;2079076;28;20087;-75
2022/10/18 01:56:06;;;;;;;2.38;1.10;;;;;;;16.63;87.56;101415.09;2064630;28;20038;-76
2022/10/18 01:57:31;;;;;;;1.30;1.13;;;;;;;16.61;87.43;101414.63;2065092;28;20065;-75
2022/10/18 01:58:47;;;;;;;2.92;1.30;;;;;;;16.55;87.41;101415.81;2072893;28;20046;-74
2022/10/18 02:00:27;;;;;;;1.75;1.27;;;;;;;16.53;87.40;101406.34;2064629;28;20038;-75
2022/10/18 02:01:57;;;;;;;1.30;1.17;;;;;;;16.52;87.18;101407.44;2069435;28;20057;-75
2022/10/18 02:03:13;;;;;;;2.03;1.35;;;;;;;16.48;86.96;101401.78;2068065;28;20486;-76
2022/10/18 02:04:57;;;;;;;1.80;1.20;;;;;;;16.48;87.13;101409.94;2072722;28;20557;-75
2022/10/18 02:06:09;;;;;;;2.25;1.05;;;;;;;16.48;87.12;101398.28;2040788;29;20058;-75
2022/10/18 02:07:38;;;;;;;3.90;1.20;;;;;;;16.47;86.91;101415.69;2033995;29;20536;-75
2022/10/18 02:08:49;;;;;;;3.90;1.10;;;;;;;16.43;86.74;101416.28;2050513;28;20058;-75
2022/10/18 02:10:13;;;;;;;1.50;1.10;;;;;;;16.44;86.99;101408.94;2059367;28;20054;-75
2022/10/18 02:11:18;;;;;;;2.22;1.20;;;;;;;16.42;86.88;101413.84;2069313;28;20054;-76
2022/10/18 02:12:22;;;;;;;2.85;1.15;;;;;;;16.41;86.67;101415.75;2064930;28;20043;-75
2022/10/18 02:13:31;;;;;;;1.83;1.05;;;;;;;16.34;86.68;101418.06;2064832;28;20050;-75
2022/10/18 02:14:35;;;;;;;3.10;1.20;;;;;;;16.28;86.52;101413.81;2056710;28;20049;-75
2022/10/18 02:15:40;;;;;;;1.25;1.13;;;;;;;16.28;86.85;101413.81;2049738;28;20144;-75
2022/10/18 02:16:58;;;;;;;1.83;1.10;;;;;;;16.30;87.16;101417.03;2049081;28;20055;-75
2022/10/18 02:18:09;;;;;;;3.65;1.33;;;;;;;16.31;87.07;101412.41;2061604;28;20049;-74
2022/10/18 02:19:34;;;;;;;3.58;1.30;;;;;;;16.33;86.92;101411.03;2070508;28;20050;-74
2022/10/18 02:20:43;;;;;;;2.88;1.27;;;;;;;16.31;87.06;101413.22;2063701;28;20090;-73
2022/10/18 02:21:50;;;;;;;1.83;1.38;;;;;;;16.29;87.04;101407.25;2056849;28;20042;-74
2022/10/18 02:22:58;;;;;;;1.90;1.30;;;;;;;16.30;86.77;101411.63;2057846;28;20054;-74
2022/10/18 02:24:06;;;;;;;2.30;1.10;;;;;;;16.32;86.89;101409.38;2071473;28;20525;-73
2022/10/18 02:25:15;;;;;;;2.22;1.13;;;;;;;16.29;86.81;101404.53;2057792;28;20043;-73
2022/10/18 02:26:25;;;;;;;4.57;1.20;;;;;;;16.29;86.96;101395.59;2067606;28;20137;-73
2022/10/18 02:27:28;;;;;;;1.52;1.08;;;;;;;16.31;87.13;101405.06;2064885;28;20049;-73
2022/10/18 02:28:33;;;;;;;1.60;1.30;;;;;;;16.32;87.03;101409.38;2057525;28;20039;-74
2022/10/18 02:29:39;;;;;;;2.38;1.30;;;;;;;16.29;86.91;101409.19;2065254;28;20050;-74
2022/10/18 02:30:48;;;;;;;1.67;1.25;;;;;;;16.28;86.94;101404.88;2065979;28;20417;-74
2022/10/18 02:32:03;;;;;;;3.80;1.40;;;;;;;16.24;87.07;101401.94;2073040;28;20049;-74
2022/10/18 02:33:10;;;;;;;2.17;1.65;;;;;;;16.18;87.00;101394.97;2064694;28;20426;-74
2022/10/18 02:34:29;;;;;;;4.55;1.45;;;;;;;16.16;87.10;101391.75;2057755;28;20142;-74
2022/10/18 02:35:47;;;;;;;2.88;1.50;;;;;;;16.18;87.14;101393.06;2059124;28;20043;-74
2022/10/18 02:36:56;;;;;;;2.10;1.25;;;;;;;16.19;87.14;101393.88;2066911;28;20054;-74
2022/10/18 02:38:05;;;;;;;2.25;1.20;;;;;;;16.22;87.24;101404.13;2064485;28;20049;-75
2022/10/18 02:39:18;;;;;;;2.33;1.20;;;;;;;16.24;87.29;101401.13;2065101;28;20112;-73
2022/10/18 02:40:24;;;;;;;5.20;1.33;;;;;;;16.20;87.14;101412.56;2074201;28;20042;-74
2022/10/18 02:41:30;;;;;;;2.28;1.30;;;;;;;16.19;87.24;101412.84;2072883;28;20050;-74
2022/10/18 02:42:34;;;;;;;2.58;1.35;;;;;;;16.19;87.06;101426.44;2073049;28;20048;-74
2022/10/18 02:43:39;;;;;;;3.15;1.42;;;;;;;16.20;87.01;101422.59;2073398;28;20050;-74
2022/10/18 02:44:41;;;;;;;3.08;1.30;;;;;;;16.22;87.42;101434.78;2072797;28;20030;-74
2022/10/18 02:45:48;;;;;;;4.07;2.22;;;;;;;16.24;87.14;101439.13;2064839;28;20046;-74
2022/10/18 02:46:52;;;;;;;3.90;1.33;;;;;;;16.24;87.13;101442.63;2073036;28;20037;-74
2022/10/18 02:47:56;;;;;;;5.70;2.40;;;;;;;16.21;87.07;101438.59;2072815;28;20117;-74
2022/10/18 02:49:02;;;;;;;6.00;1.77;;;;;;;16.18;87.05;101439.19;2065451;28;20046;-74
2022/10/18 02:50:05;;;;;;;2.97;1.30;;;;;;;16.19;87.27;101431.84;2065013;28;20034;-73
2022/10/18 02:51:15;;;;;;;1.83;1.23;;;;;;;16.22;87.27;101425.84;2065632;28;20038;-74
2022/10/18 02:52:18;;;;;;;2.00;1.33;;;;;;;16.22;87.18;101432.06;2065612;28;20042;-74
2022/10/18 02:53:23;;;;;;;5.68;1.27;;;;;;;16.23;87.28;101432.88;2071676;28;20045;-74
2022/10/18 02:54:28;;;;;;;2.97;1.40;;;;;;;16.22;87.12;101429.34;2065365;28;20038;-74
2022/10/18 02:55:31;;;;;;;1.58;1.45;;;;;;;16.22;86.78;101433.97;2064602;28;20637;-74
2022/10/18 02:56:37;;;;;;;3.22;1.35;;;;;;;16.19;87.22;101431.84;2065037;28;20038;-74
2022/10/18 02:57:44;;;;;;;2.15;1.50;;;;;;;16.20;87.05;101422.59;2072996;28;20038;-74
2022/10/18 02:58:47;;;;;;;2.55;1.67;;;;;;;16.19;86.86;101426.44;2072779;28;20398;-75
2022/10/18 02:59:49;;;;;;;4.68;2.05;;;;;;;16.20;87.06;101428.84;2064736;28;20482;-74
2022/10/18 03:00:52;;;;;;;2.17;1.45;;;;;;;16.20;86.79;101422.59;2056735;28;20042;-74
2022/10/18 03:01:54;;;;;;;3.50;2.03;;;;;;;16.15;86.85;101419.97;2065023;28;20030;-75
2022/10/18 03:02:58;;;;;;;3.00;1.50;;;;;;;16.11;86.86;101410.81;2065168;28;20037;-74
2022/10/18 03:04:01;;;;;;;2.08;1.42;;;;;;;16.10;86.73;101418.13;2072799;28;20034;-73
2022/10/18 03:05:07;;;;;;;2.80;1.63;;;;;;;16.08;87.14;101417.66;2065398;28;20042;-72
2022/10/18 03:06:12;;;;;;;4.40;1.90;;;;;;;16.09;86.89;101421.16;2056641;28;20491;-73
2022/10/18 03:07:15;;;;;;;5.50;1.90;;;;;;;16.06;87.09;101425.25;2065358;28;20038;-74
2022/10/18 03:08:21;;;;;;;2.90;1.60;;;;;;;16.07;87.13;101434.19;2072644;28;20049;-73
2022/10/18 03:09:24;;;;;;;2.95;1.50;;;;;;;16.06;87.03;101438.03;2055492;28;20053;-73
2022/10/18 03:10:30;;;;;;;3.03;1.48;;;;;;;16.06;86.95;101440.75;2058221;28;21029;-73
2022/10/18 03:11:36;;;;;;;2.38;1.33;;;;;;;16.08;87.00;101446.66;2072786;28;20046;-73
2022/10/18 03:12:43;;;;;;;4.22;1.83;;;;;;;16.08;86.83;101444.78;2072843;28;20041;-74
2022/10/18 03:13:46;;;;;;;3.67;1.73;;;;;;;16.08;87.02;101436.63;2064798;28;20043;-74
2022/10/18 03:14:49;;;;;;;4.35;1.48;;;;;;;16.05;86.92;101434.50;2064826;28;20487;-74
2022/10/18 03:15:52;;;;;;;4.90;1.40;;;;;;;16.06;86.80;101435.31;2064787;28;20053;-73
2022/10/18 03:16:57;;;;;;;4.22;1.52;;;;;;;16.09;86.76;101434.72;2065149;28;20034;-74
2022/10/18 03:18:00;;;;;;;2.22;1.30;;;;;;;16.07;86.82;101434.19;2064893;28;20038;-73
2022/10/18 03:19:02;;;;;;;2.75;1.52;;;;;;;16.05;86.83;101431.78;2064621;28;20030;-74
2022/10/18 03:20:13;;;;;;;5.22;2.00;;;;;;;16.02;86.67;101435.09;2065376;28;20486;-74
2022/10/18 03:21:18;;;;;;;3.35;1.67;;;;;;;15.99;86.48;101427.53;2065951;28;20049;-74
2022/10/18 03:22:26;;;;;;;4.50;1.40;;;;;;;15.96;86.54;101437.06;2065598;28;20050;-75
2022/10/18 03:23:29;;;;;;;1.80;1.40;;;;;;;15.97;86.63;101435.97;2072851;28;20041;-75
2022/10/18 03:24:31;;;;;;;4.10;1.70;;;;;;;15.98;86.82;101431.34;2063452;28;20136;-75
2022/10/18 03:25:33;;;;;;;3.45;1.67;;;;;;;15.99;86.73;101439.19;2056659;28;20035;-75
2022/10/18 03:26:38;;;;;;;3.50;1.52;;;;;;;16.01;86.55;101436.19;2064750;28;20058;-75
2022/10/18 03:27:46;;;;;;;3.55;1.60;;;;;;;16.03;86.77;101438.59;2064304;28;20051;-75
2022/10/18 03:28:53;;;;;;;3.42;1.52;;;;;;;16.06;86.57;101438.03;2064076;28;20065;-76
2022/10/18 03:29:55;;;;;;;2.03;1.30;;;;;;;16.09;86.61;101437.44;2064694;28;20090;-76
2022/10/18 03:31:03;;;;;;;1.88;1.42;;;;;;;16.11;86.47;101443.34;2066356;28;20050;-76
2022/10/18 03:32:05;;;;;;;3.63;1.50;;;;;;;16.10;86.40;101439.84;2066040;28;20394;-76
2022/10/18 03:33:11;;;;;;;7.32;2.60;;;;;;;16.09;86.20;101440.16;2058331;28;20046;-75
2022/10/18 03:34:17;;;;;;;4.00;1.55;;;;;;;16.04;86.23;101434.78;2058844;28;20054;-76
2022/10/18 03:35:21;;;;;;;6.25;1.80;;;;;;;16.03;86.27;101441.31;2066273;28;20053;-74
2022/10/18 03:36:23;;;;;;;2.45;1.30;;;;;;;16.05;85.89;101444.56;2066069;28;20042;-73
2022/10/18 03:37:26;;;;;;;2.95;1.50;;;;;;;16.05;86.03;101444.56;2065882;28;20034;-74
2022/10/18 03:38:31;;;;;;;2.45;1.38;;;;;;;16.01;86.00;101447.03;2057834;28;20514;-74
2022/10/18 03:39:36;;;;;;;3.53;1.38;;;;;;;16.01;86.03;101454.38;2057115;28;20042;-75
2022/10/18 03:40:40;;;;;;;3.15;1.50;;;;;;;16.00;85.88;101458.97;2073720;28;20050;-73
2022/10/18 03:41:49;;;;;;;3.60;1.35;;;;;;;16.02;85.91;101454.09;2072842;28;20176;-74
2022/10/18 03:42:52;;;;;;;3.85;1.75;;;;;;;16.03;86.10;101463.03;2066060;28;20042;-74
2022/10/18 03:43:58;;;;;;;2.40;1.40;;;;;;;16.01;85.85;101457.88;2066437;28;20042;-74
2022/10/18 03:45:03;;;;;;;2.00;1.30;;;;;;;16.03;86.05;101460.31;2073301;28;20559;-74
2022/10/18 03:46:06;;;;;;;2.80;1.60;;;;;;;16.03;85.89;101471.16;2066503;28;20042;-74
2022/10/18 03:47:13;;;;;;;2.45;1.30;;;;;;;16.03;85.84;101473.88;2065989;28;20030;-74
2022/10/18 03:48:18;;;;;;;2.08;1.50;;;;;;;16.05;86.03;101466.25;2059054;28;20039;-74
2022/10/18 03:49:21;;;;;;;3.35;1.30;;;;;;;16.08;85.77;101463.75;2065573;28;20050;-75
2022/10/18 03:50:27;;;;;;;3.42;1.52;;;;;;;16.10;85.61;101464.25;2065882;28;20046;-73
2022/10/18 03:51:30;;;;;;;1.98;1.10;;;;;;;16.13;85.86;101468.28;2058621;28;20607;-74
2022/10/18 03:52:35;;;;;;;4.63;1.70;;;;;;;16.11;85.78;101467.78;2066028;28;20057;-73
2022/10/18 03:53:37;;;;;;;2.03;1.40;;;;;;;16.12;85.57;101472.13;2065822;28;20038;-76
2022/10/18 03:54:43;;;;;;;2.90;1.58;;;;;;;16.10;85.34;101466.16;2064242;28;20178;-75
2022/10/18 03:55:50;;;;;;;3.50;1.60;;;;;;;16.05;85.65;101468.97;2073441;28;20041;-76
2022/10/18 03:56:52;;;;;;;3.88;1.65;;;;;;;16.05;85.50;101468.97;2065924;28;20045;-75
2022/10/18 03:58:00;;;;;;;4.28;1.70;;;;;;;16.04;85.62;101470.84;2066045;28;20038;-74
2022/10/18 03:59:07;;;;;;;3.75;1.58;;;;;;;16.03;85.64;101471.16;2066259;28;20042;-73
2022/10/18 04:00:12;;;;;;;3.85;1.40;;;;;;;16.04;85.70;101464.63;2066093;28;20041;-74
2022/10/18 04:01:18;;;;;;;4.25;1.63;;;;;;;16.06;85.70;101478.72;2065725;28;20044;-74
2022/10/18 04:02:21;;;;;;;2.55;1.30;;;;;;;16.09;85.61;101475.41;2065717;28;20517;-74
2022/10/18 04:03:26;;;;;;;3.75;1.40;;;;;;;16.08;85.42;101484.63;2069808;28;20038;-75
2022/10/18 04:04:29;;;;;;;2.50;1.20;;;;;;;16.08;85.75;101487.34;2065564;28;20430;-75
2022/10/18 04:05:33;;;;;;;4.95;1.63;;;;;;;16.05;85.53;101485.25;2065857;28;20410;-74
2022/10/18 04:06:37;;;;;;;4.13;1.90;;;;;;;16.04;85.27;101484.41;2064914;28;20046;-74
2022/10/18 04:07:42;;;;;;;4.78;1.60;;;;;;;16.02;85.49;101483.94;2058986;28;20041;-74
2022/10/18 04:08:47;;;;;;;3.50;1.50;;;;;;;16.01;85.26;101479.56;2058110;28;20400;-75
2022/10/18 04:09:52;;;;;;;2.83;1.52;;;;;;;15.91;85.20;101480.53;2064911;28;20050;-74
2022/10/18 04:10:58;;;;;;;3.17;1.60;;;;;;;15.87;85.56;101476.78;2065571;28;20426;-74
2022/10/18 04:12:06;;;;;;;6.07;1.63;;;;;;;15.87;85.42;101474.06;2065785;28;20057;-75
2022/10/18 04:13:10;;;;;;;2.78;1.63;;;;;;;15.83;85.66;101472.25;2065505;28;20442;-73
2022/10/18 04:14:13;;;;;;;6.38;2.30;;;;;;;15.78;85.61;101475.81;2066054;28;20713;-74
2022/10/18 04:15:16;;;;;;;4.75;1.77;;;;;;;15.74;85.97;101474.81;2065626;28;20046;-74
2022/10/18 04:16:18;;;;;;;2.72;1.50;;;;;;;15.73;85.99;101470.44;2057314;28;20121;-73
2022/10/18 04:17:21;;;;;;;3.45;1.70;;;;;;;15.74;86.30;101469.38;2065376;28;20057;-75
2022/10/18 04:18:30;;;;;;;4.60;1.50;;;;;;;15.71;85.96;101473.47;2073511;28;20041;-74
2022/10/18 04:19:39;;;;;;;3.75;1.65;;;;;;;15.73;86.40;101475.88;2059167;28;20038;-75
2022/10/18 04:20:46;;;;;;;4.15;1.50;;;;;;;15.75;86.29;101470.97;2059936;28;20050;-76
2022/10/18 04:21:49;;;;;;;5.45;1.50;;;;;;;15.76;86.23;101478.00;2056509;28;20628;-77
2022/10/18 04:22:57;;;;;;;4.72;1.65;;;;;;;15.73;86.13;101467.75;2056444;28;20038;-77
2022/10/18 04:23:58;;;;;;;5.10;1.70;;;;;;;15.69;86.27;101470.22;2064163;28;20034;-76
2022/10/18 04:25:01;;;;;;;3.53;1.80;;;;;;;15.68;86.44;101471.34;2038862;29;20039;-76
2022/10/18 04:26:08;;;;;;;4.57;1.85;;;;;;;15.69;86.76;101478.38;2058715;28;20495;-78
2022/10/18 04:27:12;;;;;;;2.53;1.50;;;;;;;15.72;86.33;101476.97;2079543;28;20516;-78
2022/10/18 04:28:14;;;;;;;4.43;1.83;;;;;;;15.71;86.66;101481.59;2072767;28;20058;-78
2022/10/18 04:29:22;;;;;;;2.80;1.55;;;;;;;15.66;86.61;101478.91;2064077;28;20513;-77
2022/10/18 04:30:25;;;;;;;4.50;1.50;;;;;;;15.61;86.66;101480.91;2057925;28;20049;-78
2022/10/18 04:31:30;;;;;;;4.63;1.52;;;;;;;15.59;86.46;101485.78;2064132;28;20050;-77
2022/10/18 04:32:36;;;;;;;5.00;1.50;;;;;;;15.58;86.63;101481.47;2057542;28;20043;-78
2022/10/18 04:33:42;;;;;;;8.35;2.00;;;;;;;15.57;86.71;101474.44;2064014;28;20062;-77
2022/10/18 04:34:45;;;;;;;5.03;1.45;;;;;;;15.58;86.91;101476.06;2065003;28;20053;-78
2022/10/18 04:35:55;;;;;;;4.43;1.60;;;;;;;15.60;86.80;101479.28;2064265;28;20548;-78
2022/10/18 04:37:00;;;;;;;4.50;1.75;;;;;;;15.54;86.84;101475.81;2071924;28;20052;-77
2022/10/18 04:38:06;;;;;;;3.45;1.65;;;;;;;15.52;86.85;101486.16;2072612;28;20049;-75
2022/10/18 04:39:09;;;;;;;3.42;1.90;;;;;;;15.51;87.02;101488.06;2064247;28;20026;-77
2022/10/18 04:40:13;;;;;;;6.82;1.95;;;;;;;15.52;87.25;101486.16;2055585;28;20051;-78
2022/10/18 04:41:15;;;;;;;6.15;1.85;;;;;;;15.51;86.92;101492.69;2063851;28;20096;-78
2022/10/18 04:42:19;;;;;;;4.43;1.85;;;;;;;15.49;86.92;101498.38;2064117;28;20104;-76
2022/10/18 04:43:23;;;;;;;3.58;1.80;;;;;;;15.50;87.19;101502.69;2055960;28;20050;-69
2022/10/18 04:44:31;;;;;;;6.40;1.73;;;;;;;15.53;87.20;101501.31;2049735;28;20111;-70
2022/10/18 04:45:34;;;;;;;2.97;1.70;;;;;;;15.58;87.43;101500.47;2056553;28;20062;-71
2022/10/18 04:46:36;;;;;;;4.40;1.88;;;;;;;15.60;87.59;101498.25;2063876;28;20046;-71
2022/10/18 04:47:38;;;;;;;5.70;1.70;;;;;;;15.63;87.67;101500.38;2064121;28;20046;-71
2022/10/18 04:48:44;;;;;;;4.85;2.05;;;;;;;15.63;87.47;101495.75;2063781;28;20050;-77
2022/10/18 04:49:48;;;;;;;6.22;2.55;;;;;;;15.64;87.01;101489.25;2056591;28;20045;-76
2022/10/18 04:50:51;;;;;;;5.25;1.92;;;;;;;15.66;87.04;101491.66;2055232;28;20043;-77
2022/10/18 04:51:56;;;;;;;4.15;1.85;;;;;;;15.61;86.85;101491.75;2055777;28;20065;-76
2022/10/18 04:53:02;;;;;;;6.57;2.33;;;;;;;15.57;86.89;101488.78;2055463;28;20069;-77
2022/10/18 04:54:04;;;;;;;7.60;2.63;;;;;;;15.58;87.33;101489.63;2055876;28;20536;-77
2022/10/18 04:55:07;;;;;;;7.03;2.10;;;;;;;15.53;87.02;101495.88;2060501;28;20030;-76
2022/10/18 04:56:10;;;;;;;4.63;2.70;;;;;;;15.50;87.07;101491.84;2063287;28;20073;-76
2022/10/18 04:57:15;;;;;;;5.88;1.80;;;;;;;15.52;87.06;101505.13;2063473;28;20518;-81
2022/10/18 04:58:20;;;;;;;6.10;2.03;;;;;;;15.55;87.06;101501.03;2071375;28;20038;-75
2022/10/18 04:59:25;;;;;;;6.40;2.25;;;;;;;15.53;87.41;101493.97;2063668;28;20061;-74
2022/10/18 05:00:29;;;;;;;6.57;2.22;;;;;;;15.48;87.07;101499.47;2063339;28;20034;-76
2022/10/18 05:01:32;;;;;;;5.18;2.10;;;;;;;15.49;86.98;101503.78;2063158;28;20046;-76
2022/10/18 05:02:35;;;;;;;5.10;1.77;;;;;;;15.47;87.04;101500.56;2063212;28;20045;-75
2022/10/18 05:03:39;;;;;;;7.35;2.10;;;;;;;15.46;87.20;101506.28;2063538;28;20049;-75
2022/10/18 05:04:46;;;;;;;4.82;2.15;;;;;;;15.46;87.21;101503.56;2054768;28;20038;-73
2022/10/18 05:05:53;;;;;;;4.60;2.08;;;;;;;15.49;87.39;101506.50;2063223;28;20412;-75
2022/10/18 05:06:56;;;;;;;5.53;2.08;;;;;;;15.55;87.49;101506.44;2070951;28;20056;-75
2022/10/18 05:07:59;;;;;;;6.53;2.05;;;;;;;15.55;87.33;101504.53;2071242;28;20489;-72
2022/10/18 05:09:05;;;;;;;3.38;1.95;;;;;;;15.52;87.30;101511.34;2070786;28;20097;-74
2022/10/18 05:10:08;;;;;;;5.90;2.38;;;;;;;15.51;87.42;101501.59;2062671;28;20045;-76
2022/10/18 05:11:13;;;;;;;4.80;2.50;;;;;;;15.51;87.35;101500.81;2062680;28;20050;-77
2022/10/18 05:12:18;;;;;;;8.73;2.00;;;;;;;15.52;87.14;101500.50;2063573;28;20130;-72
2022/10/18 05:13:21;;;;;;;9.82;2.58;;;;;;;15.53;87.09;101507.53;2071109;28;20041;-74